Time;durP1;ratioP1;P1;durP2;ratioP2;P2;SDS_P1;SDS_P2;PMS_P1;PMS_P2;Temp;Humidity;BMP_temperature;BMP_pressure;BME280_temperature;BME280_humidity;BME280_pressure;Samples;Min_cycle;Max_cycle;Signal;HPM_P1;HPM_P2
2020/12/29 00:00:58;;;;;;;3.15;1.40;;;3.80;99.90;;;;;;5012856;28;20053;-79
2020/12/29 00:03:23;;;;;;;4.45;1.00;;;3.90;99.90;;;;;;5008927;28;20563;-83
2020/12/29 00:05:50;;;;;;;1.55;0.93;;;4.00;99.90;;;;;;5014570;28;20097;-79
2020/12/29 00:08:16;;;;;;;2.45;1.25;;;4.00;99.90;;;;;;5015668;28;20041;-78
2020/12/29 00:10:42;;;;;;;1.40;0.70;;;3.90;99.90;;;;;;5017717;28;20033;-79
2020/12/29 00:13:08;;;;;;;1.95;1.00;;;3.80;99.90;;;;;;5014562;28;20026;-79
2020/12/29 00:15:37;;;;;;;1.67;0.80;;;3.80;99.90;;;;;;5001768;28;20043;-79
2020/12/29 00:18:03;;;;;;;1.38;0.70;;;3.80;99.90;;;;;;4992243;28;20034;-79
2020/12/29 00:20:28;;;;;;;1.60;0.70;;;3.70;99.90;;;;;;5011712;28;20029;-79
2020/12/29 00:22:54;;;;;;;2.22;1.13;;;3.60;99.90;;;;;;5009068;28;20030;-79
2020/12/29 00:25:19;;;;;;;4.45;1.23;;;3.70;99.90;;;;;;5014573;28;20036;-78
2020/12/29 00:27:45;;;;;;;1.75;0.85;;;3.60;99.90;;;;;;5016507;28;20029;-80
2020/12/29 00:30:11;;;;;;;3.28;0.90;;;3.60;99.90;;;;;;5000918;28;20048;-80
2020/12/29 00:32:36;;;;;;;1.25;0.90;;;3.60;99.90;;;;;;5020613;28;20497;-78
2020/12/29 00:35:03;;;;;;;1.17;0.73;;;3.60;99.90;;;;;;5020776;28;20057;-81
2020/12/29 00:37:28;;;;;;;1.00;0.60;;;3.50;99.90;;;;;;5018430;28;20041;-81
2020/12/29 00:39:54;;;;;;;4.22;0.73;;;3.50;99.90;;;;;;5019806;28;20034;-80
2020/12/29 00:42:19;;;;;;;2.78;0.63;;;3.60;99.90;;;;;;5024349;28;20033;-78
2020/12/29 00:44:45;;;;;;;1.88;0.57;;;3.70;99.90;;;;;;5038518;28;20042;-78
2020/12/29 00:47:10;;;;;;;1.27;0.57;;;3.80;99.90;;;;;;5039314;28;20037;-79
2020/12/29 00:49:38;;;;;;;0.88;0.60;;;3.70;99.90;;;;;;5028609;28;20054;-79
2020/12/29 00:52:04;;;;;;;0.65;0.50;;;3.80;99.90;;;;;;5033875;28;20042;-78
2020/12/29 00:54:29;;;;;;;1.92;0.80;;;3.70;99.90;;;;;;5033068;28;20040;-80
2020/12/29 00:56:55;;;;;;;0.93;0.50;;;3.90;99.90;;;;;;5023839;28;20033;-79
2020/12/29 00:59:20;;;;;;;0.90;0.60;;;3.90;99.90;;;;;;5027350;28;20026;-79
2020/12/29 01:01:54;;;;;;;0.45;0.45;;;3.90;99.90;;;;;;5032326;28;20097;-79
2020/12/29 01:04:19;;;;;;;2.58;0.57;;;4.10;99.90;;;;;;5032542;28;20126;-78
2020/12/29 01:06:45;;;;;;;3.03;0.50;;;4.10;99.90;;;;;;5027830;28;20057;-78
2020/12/29 01:09:10;;;;;;;0.50;0.30;;;4.10;99.90;;;;;;5029807;28;20030;-79
2020/12/29 01:11:36;;;;;;;2.13;0.82;;;4.00;99.90;;;;;;5012415;28;20048;-79
2020/12/29 01:14:01;;;;;;;2.58;0.85;;;4.00;99.90;;;;;;5031085;28;20026;-78
2020/12/29 01:16:27;;;;;;;1.48;0.70;;;3.90;99.90;;;;;;5036112;28;20044;-78
2020/12/29 01:18:52;;;;;;;0.98;0.60;;;3.90;99.90;;;;;;5002471;28;20054;-80
2020/12/29 01:21:18;;;;;;;1.05;0.40;;;3.80;99.90;;;;;;5024980;28;20045;-80
2020/12/29 01:23:44;;;;;;;2.38;0.80;;;3.80;99.90;;;;;;5033461;28;20039;-80
2020/12/29 01:26:09;;;;;;;1.35;0.70;;;3.80;99.90;;;;;;5014185;28;20901;-78
2020/12/29 01:28:37;;;;;;;1.95;1.02;;;3.80;99.90;;;;;;5032351;28;20069;-80
2020/12/29 01:31:03;;;;;;;0.60;0.40;;;3.80;99.90;;;;;;5000488;28;20037;-80
2020/12/29 01:33:28;;;;;;;1.35;0.65;;;3.80;99.90;;;;;;5014787;28;20033;-81
2020/12/29 01:35:54;;;;;;;1.17;0.50;;;3.80;99.90;;;;;;5012682;28;20489;-81
2020/12/29 01:38:19;;;;;;;1.00;0.57;;;3.80;99.90;;;;;;5005210;28;20038;-81
2020/12/29 01:40:46;;;;;;;1.27;0.70;;;3.80;99.90;;;;;;5016496;28;20030;-79
2020/12/29 01:43:12;;;;;;;1.15;0.73;;;3.80;99.90;;;;;;5018278;28;20025;-79
2020/12/29 01:45:38;;;;;;;2.95;0.60;;;3.80;99.90;;;;;;5013409;28;20693;-82
2020/12/29 01:48:04;;;;;;;3.40;0.85;;;3.80;99.90;;;;;;5016110;28;20116;-81
2020/12/29 01:50:29;;;;;;;0.50;0.43;;;3.90;99.90;;;;;;5015266;28;20038;-81
2020/12/29 01:53:04;;;;;;;0.50;0.38;;;3.80;99.90;;;;;;5022356;28;20455;-83
2020/12/29 01:55:31;;;;;;;1.73;0.57;;;3.90;99.90;;;;;;5015430;28;20487;-81
2020/12/29 01:58:00;;;;;;;0.90;0.57;;;3.80;99.90;;;;;;5019190;28;20404;-82
2020/12/29 02:00:26;;;;;;;1.15;0.60;;;3.90;99.90;;;;;;5010611;28;20034;-80
2020/12/29 02:02:52;;;;;;;1.63;0.60;;;3.90;99.90;;;;;;5017687;28;20047;-81
2020/12/29 02:05:17;;;;;;;1.25;0.55;;;3.90;99.90;;;;;;5008475;28;20034;-79
2020/12/29 02:07:46;;;;;;;0.82;0.60;;;3.90;99.90;;;;;;4986139;28;20080;-81
2020/12/29 02:10:12;;;;;;;3.28;0.77;;;3.90;99.90;;;;;;4977500;28;20607;-79
2020/12/29 02:12:37;;;;;;;1.40;0.55;;;3.90;99.90;;;;;;4980479;28;20053;-81
2020/12/29 02:15:07;;;;;;;0.50;0.47;;;4.00;99.90;;;;;;4998607;28;20148;-81
2020/12/29 02:17:33;;;;;;;0.60;0.40;;;4.00;99.90;;;;;;4972379;28;20064;-79
2020/12/29 02:19:59;;;;;;;0.68;0.50;;;4.00;99.90;;;;;;4970391;28;20061;-80
2020/12/29 02:22:26;;;;;;;1.92;0.60;;;4.00;99.90;;;;;;4991974;28;20037;-80
2020/12/29 02:24:53;;;;;;;1.10;0.60;;;4.00;99.90;;;;;;4968111;28;20116;-81
2020/12/29 02:27:20;;;;;;;0.90;0.40;;;4.10;99.90;;;;;;4950681;28;20520;-82
2020/12/29 02:29:46;;;;;;;0.73;0.50;;;4.20;99.90;;;;;;4994662;28;20034;-81
2020/12/29 02:32:11;;;;;;;0.75;0.63;;;4.30;99.90;;;;;;4940260;28;20041;-78
2020/12/29 02:34:37;;;;;;;0.52;0.43;;;4.20;99.90;;;;;;4973258;28;20038;-81
2020/12/29 02:37:11;;;;;;;0.40;0.32;;;4.30;99.90;;;;;;4986964;28;20052;-78
2020/12/29 02:39:42;;;;;;;;;;;4.40;99.90;;;;;;5000302;28;20037;-79
2020/12/29 02:42:08;;;;;;;6.32;0.47;;;4.30;99.90;;;;;;4982870;28;19913;-79
2020/12/29 02:44:34;;;;;;;0.20;0.20;;;4.40;99.90;;;;;;5016041;28;20129;-79
2020/12/29 02:47:00;;;;;;;0.30;0.30;;;4.30;99.90;;;;;;4959780;28;20609;-80
2020/12/29 02:49:26;;;;;;;0.38;0.22;;;4.50;99.90;;;;;;4957718;28;20138;-82
2020/12/29 02:51:51;;;;;;;0.30;0.20;;;4.60;99.90;;;;;;4970328;28;20038;-81
2020/12/29 02:54:17;;;;;;;1.38;0.40;;;4.70;99.90;;;;;;4969455;28;20034;-80
2020/12/29 02:56:43;;;;;;;0.70;0.20;;;4.50;99.90;;;;;;4956606;28;20045;-80
2020/12/29 02:59:09;;;;;;;1.30;0.30;;;4.50;99.90;;;;;;4952401;28;20037;-80
2020/12/29 03:01:35;;;;;;;0.50;0.30;;;4.40;99.90;;;;;;4968678;28;20043;-81
2020/12/29 03:04:01;;;;;;;1.00;0.43;;;4.40;99.90;;;;;;4984857;28;20128;-81
2020/12/29 03:06:27;;;;;;;0.20;0.15;;;4.40;99.90;;;;;;4964578;28;20033;-81
2020/12/29 03:08:53;;;;;;;1.08;0.60;;;4.40;99.90;;;;;;4986496;28;20103;-81
2020/12/29 03:11:29;;;;;;;2.50;0.57;;;4.30;99.90;;;;;;4993040;28;20037;-81
2020/12/29 03:13:56;;;;;;;3.65;0.52;;;4.30;99.90;;;;;;4978029;28;20127;-79
2020/12/29 03:16:22;;;;;;;0.20;0.20;;;4.30;99.90;;;;;;4995616;28;20548;-80
2020/12/29 03:18:47;;;;;;;0.30;0.10;;;4.30;99.90;;;;;;4997631;28;20054;-81
2020/12/29 03:21:13;;;;;;;0.30;0.30;;;4.20;99.90;;;;;;4978611;28;20121;-79
2020/12/29 03:23:39;;;;;;;0.90;0.30;;;4.30;99.90;;;;;;4988794;28;20050;-78
2020/12/29 03:26:04;;;;;;;2.47;0.30;;;4.30;99.90;;;;;;4985874;28;20120;-79
2020/12/29 03:28:30;;;;;;;0.77;0.20;;;4.30;99.90;;;;;;4999213;28;20066;-79
2020/12/29 03:30:56;;;;;;;0.68;0.40;;;4.30;99.90;;;;;;4961576;28;20029;-79
2020/12/29 03:33:21;;;;;;;0.20;0.20;;;4.30;99.90;;;;;;4947708;28;20543;-81
2020/12/29 03:35:47;;;;;;;1.58;0.40;;;4.20;99.90;;;;;;4971191;28;20060;-80
2020/12/29 03:38:12;;;;;;;0.10;0.10;;;4.20;99.90;;;;;;4977460;28;20022;-79
2020/12/29 03:40:38;;;;;;;0.28;0.20;;;4.30;99.90;;;;;;4982176;28;20037;-78
2020/12/29 03:43:03;;;;;;;0.30;0.30;;;4.20;99.90;;;;;;4969211;28;20436;-79
2020/12/29 03:45:29;;;;;;;1.60;0.40;;;4.20;99.90;;;;;;4993655;28;20038;-79
2020/12/29 03:47:54;;;;;;;0.82;0.40;;;4.10;99.90;;;;;;4971159;28;20038;-80
2020/12/29 03:50:20;;;;;;;0.20;0.13;;;4.10;99.90;;;;;;4998477;28;20057;-81
2020/12/29 03:52:46;;;;;;;2.58;0.30;;;4.10;99.90;;;;;;5017153;28;20064;-83
2020/12/29 03:55:12;;;;;;;2.45;0.20;;;4.10;99.90;;;;;;4963978;28;20042;-80
2020/12/29 03:57:38;;;;;;;0.50;0.10;;;4.00;99.90;;;;;;4978270;28;20030;-80
2020/12/29 04:00:05;;;;;;;0.98;0.20;;;4.00;99.90;;;;;;4987009;28;20041;-80
2020/12/29 04:02:31;;;;;;;1.60;0.40;;;4.00;99.90;;;;;;4986224;28;20042;-83
2020/12/29 04:04:57;;;;;;;0.38;0.30;;;4.00;99.90;;;;;;4965810;28;20081;-80
2020/12/29 04:07:22;;;;;;;1.60;0.50;;;4.00;99.90;;;;;;4983484;28;20505;-81
2020/12/29 04:09:47;;;;;;;0.45;0.30;;;4.00;99.90;;;;;;4961645;28;21484;-82
2020/12/29 04:12:13;;;;;;;1.15;0.38;;;4.00;99.90;;;;;;4988858;28;20046;-82
2020/12/29 04:14:38;;;;;;;1.55;0.38;;;4.00;99.90;;;;;;4980695;28;20049;-82
2020/12/29 04:17:04;;;;;;;0.82;0.22;;;4.10;99.90;;;;;;4999381;28;20435;-83
2020/12/29 04:19:29;;;;;;;0.60;0.10;;;4.00;99.90;;;;;;4999440;28;20532;-82
2020/12/29 04:21:55;;;;;;;0.88;0.35;;;4.10;99.90;;;;;;4977792;28;20041;-83
2020/12/29 04:24:20;;;;;;;2.72;0.40;;;4.10;99.90;;;;;;5003139;28;20045;-80
2020/12/29 04:26:46;;;;;;;1.60;0.52;;;4.10;99.90;;;;;;5019240;28;20045;-81
2020/12/29 04:29:12;;;;;;;0.75;0.30;;;4.10;99.90;;;;;;4992220;28;20153;-81
2020/12/29 04:31:37;;;;;;;4.30;0.60;;;4.10;99.90;;;;;;4989086;28;20041;-81
2020/12/29 04:34:03;;;;;;;2.72;0.43;;;4.10;99.90;;;;;;4993430;28;20046;-81
2020/12/29 04:36:28;;;;;;;3.83;0.30;;;4.10;99.90;;;;;;4997127;28;20045;-82
2020/12/29 04:38:54;;;;;;;4.28;0.50;;;4.00;99.90;;;;;;5006722;28;20041;-82
2020/12/29 04:41:19;;;;;;;0.60;0.28;;;4.00;99.90;;;;;;4982874;28;20176;-82
2020/12/29 04:43:45;;;;;;;0.40;0.25;;;4.00;99.90;;;;;;4990503;28;20038;-81
2020/12/29 04:46:11;;;;;;;2.65;0.20;;;4.00;99.90;;;;;;4980161;28;20109;-81
2020/12/29 04:48:37;;;;;;;0.63;0.30;;;4.00;99.90;;;;;;4971542;28;20278;-81
2020/12/29 04:51:07;;;;;;;1.48;0.30;;;4.10;99.90;;;;;;4977669;28;20052;-82
2020/12/29 04:53:34;;;;;;;1.30;0.30;;;4.20;99.90;;;;;;4975614;28;20049;-82
2020/12/29 04:56:06;;;;;;;0.65;0.35;;;4.20;99.90;;;;;;4971986;28;20409;-82
2020/12/29 04:58:37;;;;;;;1.65;0.35;;;4.30;99.90;;;;;;5002787;28;20033;-82
2020/12/29 05:01:08;;;;;;;4.43;0.63;;;4.30;99.90;;;;;;4978570;28;20041;-83
2020/12/29 05:03:43;;;;;;;3.25;0.30;;;4.30;99.90;;;;;;4955685;28;20049;-82
2020/12/29 05:06:09;;;;;;;4.30;0.40;;;4.30;99.90;;;;;;4975578;28;20069;-82
2020/12/29 05:08:35;;;;;;;0.45;0.25;;;4.20;99.90;;;;;;4970906;28;20048;-82
2020/12/29 05:11:00;;;;;;;2.35;0.40;;;4.10;99.90;;;;;;4972559;28;20038;-82
2020/12/29 05:13:26;;;;;;;0.25;0.20;;;4.10;99.90;;;;;;4996678;28;20382;-83
2020/12/29 05:15:51;;;;;;;1.95;0.50;;;4.10;99.90;;;;;;4973564;28;20113;-83
2020/12/29 05:18:17;;;;;;;2.22;0.40;;;4.00;99.90;;;;;;4971740;28;20042;-83
2020/12/29 05:20:43;;;;;;;1.08;0.35;;;4.00;99.90;;;;;;4971129;28;20467;-83
2020/12/29 05:23:09;;;;;;;1.27;0.43;;;4.00;99.90;;;;;;4964357;28;20116;-83
2020/12/29 05:25:40;;;;;;;6.85;0.60;;;4.00;99.90;;;;;;4953889;28;20033;-82
2020/12/29 05:28:06;;;;;;;1.10;0.30;;;3.90;99.90;;;;;;4979650;28;20093;-82
2020/12/29 05:30:32;;;;;;;2.28;0.65;;;4.00;99.90;;;;;;4952485;28;20512;-83
2020/12/29 05:32:57;;;;;;;1.38;0.52;;;4.00;99.90;;;;;;4980180;28;20115;-82
2020/12/29 05:35:24;;;;;;;4.00;0.70;;;4.10;99.90;;;;;;4971524;28;20056;-82
2020/12/29 05:37:52;;;;;;;1.20;0.32;;;4.10;99.90;;;;;;4964911;28;20537;-83
2020/12/29 05:40:28;;;;;;;0.82;0.30;;;4.20;99.90;;;;;;4971053;28;20045;-82
2020/12/29 05:42:56;;;;;;;0.93;0.47;;;4.20;99.90;;;;;;4986112;28;20076;-82
2020/12/29 05:45:24;;;;;;;4.75;0.65;;;4.30;99.90;;;;;;4996997;28;20042;-82
2020/12/29 05:47:58;;;;;;;3.65;0.40;;;4.40;99.90;;;;;;4969907;28;20129;-82
2020/12/29 05:50:25;;;;;;;1.08;0.35;;;4.30;99.90;;;;;;4973463;28;20539;-84
2020/12/29 05:52:53;;;;;;;0.65;0.32;;;4.30;99.90;;;;;;4971069;28;20049;-81
2020/12/29 05:55:20;;;;;;;1.25;0.10;;;4.30;99.90;;;;;;4962053;28;20561;-81
2020/12/29 05:58:09;;;;;;;1.88;0.60;;;4.40;99.90;;;;;;4995619;28;20060;-81
2020/12/29 06:00:39;;;;;;;2.50;0.43;;;4.40;99.90;;;;;;4970075;28;20164;-81
2020/12/29 06:03:07;;;;;;;5.20;0.65;;;4.30;99.90;;;;;;4943489;28;20392;-82
2020/12/29 06:05:35;;;;;;;0.43;0.10;;;4.30;99.90;;;;;;4973323;28;20769;-82
2020/12/29 06:08:08;;;;;;;1.23;0.32;;;4.30;99.90;;;;;;5047791;27;20375;-83
2020/12/29 06:10:34;;;;;;;1.50;0.50;;;4.30;99.90;;;;;;5027264;28;20030;-83
2020/12/29 06:13:05;;;;;;;2.97;0.20;;;4.20;99.90;;;;;;5004181;28;20046;-81
2020/12/29 06:15:33;;;;;;;2.35;1.13;;;4.20;99.90;;;;;;5012360;28;20033;-81
2020/12/29 06:18:00;;;;;;;4.80;0.30;;;4.20;99.90;;;;;;5006775;28;20045;-81
2020/12/29 06:20:32;;;;;;;0.70;0.32;;;4.20;99.90;;;;;;5020403;28;20018;-81
2020/12/29 06:23:01;;;;;;;1.33;0.20;;;4.20;99.90;;;;;;4995705;28;20042;-81
2020/12/29 06:25:31;;;;;;;4.03;0.50;;;4.10;99.90;;;;;;4993808;28;20036;-81
2020/12/29 06:28:00;;;;;;;4.40;0.40;;;4.10;99.90;;;;;;4954191;28;20439;-81
2020/12/29 06:30:26;;;;;;;9.48;2.95;;;4.10;99.90;;;;;;4997258;28;20357;-81
2020/12/29 06:32:54;;;;;;;4.13;0.82;;;4.00;99.90;;;;;;5008543;28;20048;-81
2020/12/29 06:35:19;;;;;;;1.45;0.40;;;4.00;99.90;;;;;;4987103;28;20040;-81
2020/12/29 06:37:51;;;;;;;1.95;0.57;;;4.10;99.90;;;;;;4998747;28;20556;-80
2020/12/29 06:40:17;;;;;;;2.28;0.50;;;4.10;99.90;;;;;;5010303;28;20095;-81
2020/12/29 06:42:43;;;;;;;1.27;0.45;;;4.10;99.90;;;;;;4998177;28;20091;-81
2020/12/29 06:45:11;;;;;;;0.90;0.35;;;4.10;99.90;;;;;;4970361;28;20555;-81
2020/12/29 06:47:38;;;;;;;2.15;0.55;;;4.00;99.90;;;;;;4993490;28;20407;-81
2020/12/29 06:50:22;;;;;;;2.20;0.32;;;4.20;99.90;;;;;;4947877;28;20397;-81
2020/12/29 06:52:55;;;;;;;2.13;0.50;;;4.20;99.90;;;;;;4980777;28;20138;-81
2020/12/29 06:55:20;;;;;;;2.58;0.60;;;4.20;99.90;;;;;;4966288;28;20041;-81
2020/12/29 06:57:51;;;;;;;1.83;0.70;;;4.20;99.90;;;;;;4990689;28;20042;-81
2020/12/29 07:00:22;;;;;;;2.22;0.30;;;4.20;99.90;;;;;;4993347;28;20041;-81
2020/12/29 07:02:49;;;;;;;6.63;0.90;;;4.10;99.90;;;;;;4970328;28;20532;-82
2020/12/29 07:05:23;;;;;;;1.52;0.50;;;4.00;99.90;;;;;;4977475;28;20053;-81
2020/12/29 07:07:51;;;;;;;3.13;0.40;;;4.00;99.90;;;;;;4994981;28;20046;-81
2020/12/29 07:10:18;;;;;;;2.28;0.40;;;4.10;99.90;;;;;;4972313;28;20132;-81
2020/12/29 07:12:46;;;;;;;1.40;0.52;;;4.00;99.90;;;;;;4954511;28;20042;-80
2020/12/29 07:15:16;;;;;;;1.48;0.55;;;4.10;99.90;;;;;;4996012;28;20042;-80
2020/12/29 07:17:56;;;;;;;0.80;0.40;;;4.00;99.90;;;;;;4991356;28;20034;-80
2020/12/29 07:20:23;;;;;;;1.50;0.60;;;4.00;99.90;;;;;;4989170;28;20092;-81
2020/12/29 07:23:03;;;;;;;1.65;0.50;;;4.00;99.90;;;;;;4974786;28;20038;-80
2020/12/29 07:25:30;;;;;;;1.58;0.40;;;4.10;99.90;;;;;;4996556;28;20034;-81
2020/12/29 07:28:05;;;;;;;2.35;0.45;;;4.10;99.90;;;;;;4979984;28;20099;-81
2020/12/29 07:30:31;;;;;;;2.65;0.95;;;3.90;99.90;;;;;;4965542;28;20077;-81
2020/12/29 07:33:00;;;;;;;5.10;0.68;;;4.10;99.90;;;;;;5007258;28;20717;-81
2020/12/29 07:35:33;;;;;;;2.08;0.55;;;4.10;99.90;;;;;;4935442;28;20068;-81
2020/12/29 07:38:11;;;;;;;4.53;0.50;;;4.20;99.90;;;;;;4969693;28;20061;-82
2020/12/29 07:40:36;;;;;;;4.03;0.50;;;4.20;99.90;;;;;;4969774;28;20125;-81
2020/12/29 07:43:04;;;;;;;1.20;0.40;;;4.20;99.90;;;;;;4969537;28;20124;-82
2020/12/29 07:45:29;;;;;;;2.63;0.40;;;4.20;99.90;;;;;;4961130;28;20066;-83
2020/12/29 07:47:58;;;;;;;2.75;0.40;;;4.20;99.90;;;;;;4982350;28;20108;-81
2020/12/29 07:50:24;;;;;;;1.58;0.50;;;4.20;99.90;;;;;;4954714;28;20044;-80
2020/12/29 07:52:49;;;;;;;2.60;0.70;;;4.20;99.90;;;;;;4960518;28;20042;-80
2020/12/29 07:55:16;;;;;;;1.58;0.60;;;4.20;99.90;;;;;;4966075;28;20042;-80
2020/12/29 07:57:42;;;;;;;3.00;0.55;;;4.20;99.90;;;;;;4956128;28;20073;-80
2020/12/29 08:00:14;;;;;;;3.80;0.65;;;4.20;99.90;;;;;;4957049;28;20037;-80
2020/12/29 08:02:41;;;;;;;2.53;0.93;;;4.20;99.90;;;;;;4963826;28;20046;-83
2020/12/29 08:05:07;;;;;;;2.03;0.57;;;4.30;99.90;;;;;;4959008;28;20088;-80
2020/12/29 08:07:33;;;;;;;1.15;0.55;;;4.30;99.90;;;;;;4995269;28;20050;-81
2020/12/29 08:09:58;;;;;;;1.67;0.40;;;4.30;99.90;;;;;;4969796;28;20041;-81
2020/12/29 08:12:24;;;;;;;1.83;0.70;;;4.40;99.90;;;;;;4964150;28;20046;-80
2020/12/29 08:14:50;;;;;;;3.40;0.30;;;4.40;99.90;;;;;;4983658;28;20400;-80
2020/12/29 08:17:15;;;;;;;4.10;0.50;;;4.40;99.90;;;;;;4993832;28;20051;-81
2020/12/29 08:19:56;;;;;;;5.85;0.68;;;4.40;99.90;;;;;;4985125;28;20049;-81
2020/12/29 08:22:28;;;;;;;1.15;0.60;;;4.40;99.90;;;;;;4944534;28;20040;-80
2020/12/29 08:24:54;;;;;;;6.15;1.17;;;4.50;99.90;;;;;;4969383;28;20086;-81
2020/12/29 08:27:19;;;;;;;4.65;0.73;;;4.50;99.90;;;;;;4956863;28;20045;-81
2020/12/29 08:29:45;;;;;;;1.45;0.50;;;4.50;99.90;;;;;;4955736;28;20042;-82
2020/12/29 08:32:15;;;;;;;2.42;0.70;;;4.50;99.90;;;;;;4955328;28;20901;-79
2020/12/29 08:34:44;;;;;;;2.40;0.65;;;4.50;99.90;;;;;;4959770;28;20041;-80
2020/12/29 08:37:12;;;;;;;2.75;0.90;;;4.60;99.90;;;;;;4975280;28;20782;-79
2020/12/29 08:39:38;;;;;;;1.40;0.40;;;4.60;99.90;;;;;;4960325;28;20050;-81
2020/12/29 08:42:04;;;;;;;2.60;0.40;;;4.60;99.90;;;;;;4980703;28;20049;-79
2020/12/29 08:44:31;;;;;;;1.75;0.45;;;4.60;99.90;;;;;;4945178;28;20046;-80
2020/12/29 08:46:57;;;;;;;2.47;0.80;;;4.60;99.90;;;;;;4957708;28;20065;-82
2020/12/29 08:49:30;;;;;;;3.15;0.57;;;4.60;99.90;;;;;;4992401;28;20037;-82
2020/12/29 08:51:56;;;;;;;5.43;0.63;;;4.60;99.90;;;;;;4982612;28;20054;-82
2020/12/29 08:54:22;;;;;;;5.28;0.82;;;4.60;99.90;;;;;;4960750;28;20211;-82
2020/12/29 08:56:48;;;;;;;1.33;0.70;;;4.60;99.90;;;;;;4983413;28;20046;-80
2020/12/29 08:59:19;;;;;;;4.97;0.90;;;4.50;99.90;;;;;;4968316;28;20668;-80
2020/12/29 09:01:56;;;;;;;2.00;0.40;;;4.50;99.90;;;;;;4980985;28;20068;-80
2020/12/29 09:04:29;;;;;;;1.92;0.57;;;4.50;99.90;;;;;;4995824;28;20388;-80
2020/12/29 09:06:55;;;;;;;4.30;0.77;;;4.50;99.90;;;;;;4989804;28;20041;-81
2020/12/29 09:09:21;;;;;;;6.70;0.90;;;4.40;99.90;;;;;;4997186;28;20184;-81
2020/12/29 09:11:47;;;;;;;2.75;0.73;;;4.50;99.90;;;;;;4958521;28;20129;-83
2020/12/29 09:14:12;;;;;;;2.75;0.80;;;4.40;99.90;;;;;;4984437;28;20085;-82
2020/12/29 09:16:38;;;;;;;6.07;1.30;;;4.40;99.90;;;;;;4958493;28;20123;-83
2020/12/29 09:19:13;;;;;;;1.52;0.50;;;4.40;99.90;;;;;;5014090;28;20040;-82
2020/12/29 09:21:39;;;;;;;2.47;0.50;;;4.30;99.90;;;;;;4981600;28;20129;-81
2020/12/29 09:24:05;;;;;;;3.72;0.50;;;4.30;99.90;;;;;;5007863;28;20119;-82
2020/12/29 09:26:30;;;;;;;1.40;0.57;;;4.30;99.90;;;;;;4998206;28;20554;-82
2020/12/29 09:28:56;;;;;;;2.30;0.55;;;4.30;99.90;;;;;;4977979;28;20034;-81
2020/12/29 09:31:26;;;;;;;2.03;0.60;;;4.30;99.90;;;;;;4971177;28;20141;-81
2020/12/29 09:33:52;;;;;;;2.05;0.60;;;4.30;99.90;;;;;;4983476;28;20125;-82
2020/12/29 09:36:26;;;;;;;0.70;0.43;;;4.40;99.90;;;;;;4959248;28;20065;-82
2020/12/29 09:38:54;;;;;;;0.47;0.32;;;4.30;99.90;;;;;;4982536;28;20068;-82
2020/12/29 09:41:20;;;;;;;0.40;0.40;;;4.40;99.90;;;;;;4983149;28;20509;-82
2020/12/29 09:43:48;;;;;;;1.85;0.40;;;4.30;99.90;;;;;;4985276;28;20188;-82
2020/12/29 09:46:13;;;;;;;2.13;0.68;;;4.40;99.90;;;;;;4959123;28;20995;-82
2020/12/29 09:48:40;;;;;;;0.40;0.38;;;4.50;99.90;;;;;;4987619;28;20100;-82
2020/12/29 09:51:06;;;;;;;0.88;0.38;;;4.50;99.90;;;;;;5009229;28;20053;-82
2020/12/29 09:53:31;;;;;;;1.05;0.40;;;4.50;99.90;;;;;;5007813;28;20040;-82
2020/12/29 09:55:57;;;;;;;1.17;0.55;;;4.50;99.90;;;;;;4987561;28;20540;-82
2020/12/29 09:58:23;;;;;;;2.65;0.60;;;4.60;99.90;;;;;;5009004;28;20038;-82
2020/12/29 10:00:50;;;;;;;1.55;0.52;;;4.70;99.90;;;;;;5007416;28;20064;-81
2020/12/29 10:03:16;;;;;;;1.48;0.60;;;4.60;99.90;;;;;;5009792;28;20086;-82
2020/12/29 10:05:43;;;;;;;1.08;0.50;;;4.70;99.90;;;;;;4984277;28;20047;-81
2020/12/29 10:08:10;;;;;;;1.58;0.40;;;4.70;99.90;;;;;;5005500;28;20042;-82
2020/12/29 10:10:35;;;;;;;2.95;0.70;;;4.70;99.90;;;;;;5004060;28;20036;-81
2020/12/29 10:13:01;;;;;;;0.47;0.28;;;4.70;99.90;;;;;;5009013;28;20108;-81
2020/12/29 10:15:26;;;;;;;0.35;0.35;;;4.70;99.90;;;;;;4985400;28;20130;-82
2020/12/29 10:17:52;;;;;;;1.92;0.75;;;4.70;99.90;;;;;;5000337;28;20038;-81
2020/12/29 10:20:18;;;;;;;0.80;0.50;;;4.70;99.90;;;;;;4994289;28;20037;-81
2020/12/29 10:22:44;;;;;;;1.92;0.52;;;4.80;99.90;;;;;;4999707;28;20137;-82
2020/12/29 10:25:14;;;;;;;0.60;0.45;;;4.80;99.90;;;;;;4997431;28;20026;-81
2020/12/29 10:27:39;;;;;;;0.77;0.60;;;4.80;99.90;;;;;;4997314;28;20581;-81
2020/12/29 10:30:05;;;;;;;11.35;0.68;;;4.90;99.90;;;;;;4997130;28;20066;-81
2020/12/29 10:32:31;;;;;;;4.78;0.57;;;4.90;99.90;;;;;;4999027;28;20970;-81
2020/12/29 10:34:56;;;;;;;0.85;0.40;;;4.90;99.90;;;;;;4997725;28;20046;-81
2020/12/29 10:37:22;;;;;;;1.38;0.55;;;4.90;99.90;;;;;;4998808;28;20030;-81
2020/12/29 10:39:47;;;;;;;0.52;0.35;;;4.90;99.90;;;;;;4995082;28;20078;-81
2020/12/29 10:42:13;;;;;;;1.25;0.40;;;5.00;99.90;;;;;;4996522;28;20038;-81
2020/12/29 10:44:38;;;;;;;0.50;0.32;;;5.00;99.90;;;;;;4994377;28;20425;-81
2020/12/29 10:47:04;;;;;;;1.45;0.57;;;5.10;99.90;;;;;;4994419;28;20410;-80
2020/12/29 10:49:30;;;;;;;1.20;0.50;;;5.20;99.90;;;;;;4991441;28;20456;-81
2020/12/29 10:51:55;;;;;;;2.28;0.50;;;5.30;99.90;;;;;;4993850;28;20030;-81
2020/12/29 10:54:21;;;;;;;1.08;0.57;;;5.40;99.90;;;;;;5000387;28;20080;-81
2020/12/29 10:56:46;;;;;;;3.47;1.00;;;5.40;99.90;;;;;;4997081;28;20027;-81
2020/12/29 10:59:12;;;;;;;1.10;0.50;;;5.40;99.90;;;;;;5008949;28;20088;-81
2020/12/29 11:01:38;;;;;;;0.70;0.25;;;5.40;99.90;;;;;;5013577;28;20468;-81
2020/12/29 11:04:04;;;;;;;0.52;0.22;;;5.40;99.90;;;;;;4999427;28;20045;-81
2020/12/29 11:06:31;;;;;;;3.83;0.63;;;5.40;99.90;;;;;;4996129;28;20125;-81
2020/12/29 11:08:56;;;;;;;0.77;0.50;;;5.40;99.90;;;;;;5002027;28;20053;-81
2020/12/29 11:11:22;;;;;;;1.55;0.60;;;5.50;99.90;;;;;;4996495;28;20077;-80
2020/12/29 11:13:47;;;;;;;2.25;0.50;;;5.50;99.90;;;;;;4996828;28;20026;-81
2020/12/29 11:16:17;;;;;;;2.65;0.55;;;5.50;99.90;;;;;;5005228;28;20497;-80
2020/12/29 11:18:45;;;;;;;2.00;0.80;;;5.50;99.90;;;;;;5000412;28;20039;-80
2020/12/29 11:21:10;;;;;;;2.10;0.40;;;5.50;99.90;;;;;;5001765;28;20062;-80
2020/12/29 11:23:36;;;;;;;0.73;0.43;;;5.50;99.90;;;;;;5007089;28;20072;-80
2020/12/29 11:26:03;;;;;;;1.95;0.45;;;5.60;99.90;;;;;;4976840;28;20038;-80
2020/12/29 11:28:28;;;;;;;1.08;0.30;;;5.70;99.90;;;;;;5001936;28;20072;-80
2020/12/29 11:30:54;;;;;;;1.35;0.40;;;6.00;99.90;;;;;;5029392;28;20113;-81
2020/12/29 11:33:20;;;;;;;0.80;0.38;;;6.00;99.90;;;;;;5020502;28;20058;-79
2020/12/29 11:35:47;;;;;;;2.13;0.50;;;6.00;99.90;;;;;;5012791;28;20064;-81
2020/12/29 11:38:22;;;;;;;2.30;0.50;;;5.80;99.90;;;;;;5001896;28;20092;-81
2020/12/29 11:40:49;;;;;;;4.00;0.40;;;5.90;99.90;;;;;;5000682;28;20033;-81
2020/12/29 11:43:15;;;;;;;1.88;0.30;;;5.80;99.40;;;;;;5004910;28;20094;-81
2020/12/29 11:45:41;;;;;;;0.57;0.20;;;5.90;99.90;;;;;;5016394;28;20591;-81
2020/12/29 11:48:07;;;;;;;1.83;0.43;;;5.90;99.60;;;;;;5013231;28;20130;-80
2020/12/29 11:50:32;;;;;;;0.90;0.40;;;6.00;99.90;;;;;;5018528;28;20061;-80
2020/12/29 11:52:58;;;;;;;2.65;0.85;;;6.10;99.00;;;;;;5011711;28;20485;-80
2020/12/29 11:55:23;;;;;;;4.78;0.73;;;6.20;99.40;;;;;;5008457;28;20042;-80
2020/12/29 11:57:49;;;;;;;1.17;0.35;;;6.20;99.90;;;;;;5001978;28;20046;-80
2020/12/29 12:00:15;;;;;;;3.05;0.60;;;6.20;99.10;;;;;;5004391;28;20048;-82
2020/12/29 12:02:40;;;;;;;0.68;0.30;;;6.20;99.20;;;;;;5002542;28;20026;-81
2020/12/29 12:05:06;;;;;;;1.30;0.35;;;6.10;97.00;;;;;;5003688;28;20081;-80
2020/12/29 12:07:31;;;;;;;3.30;0.40;;;6.10;96.30;;;;;;4994454;28;20092;-81
2020/12/29 12:09:57;;;;;;;1.50;0.50;;;6.10;96.50;;;;;;4997384;28;20038;-81
2020/12/29 12:12:22;;;;;;;0.43;0.30;;;6.20;96.00;;;;;;5002377;28;20096;-81
2020/12/29 12:14:48;;;;;;;8.98;0.68;;;6.10;96.00;;;;;;5004377;28;20148;-81
2020/12/29 12:17:14;;;;;;;8.68;0.98;;;6.10;95.80;;;;;;5004096;28;20076;-81
2020/12/29 12:19:39;;;;;;;1.80;0.50;;;6.10;97.10;;;;;;4996546;28;20039;-81
2020/12/29 12:22:05;;;;;;;2.08;0.50;;;6.10;95.90;;;;;;5002115;28;20045;-81
2020/12/29 12:24:32;;;;;;;1.92;0.35;;;6.10;95.20;;;;;;5015915;28;20081;-81
2020/12/29 12:26:57;;;;;;;2.03;0.35;;;6.20;96.10;;;;;;5008874;28;20064;-81
2020/12/29 12:29:24;;;;;;;0.95;0.40;;;6.20;95.90;;;;;;4995724;28;20042;-80
2020/12/29 12:31:50;;;;;;;2.15;0.38;;;6.20;95.30;;;;;;5002729;28;20040;-81
2020/12/29 12:34:15;;;;;;;2.53;0.40;;;6.10;96.30;;;;;;4997730;28;20030;-81
2020/12/29 12:36:41;;;;;;;1.85;0.60;;;6.20;96.50;;;;;;4997275;28;20111;-81
2020/12/29 12:39:07;;;;;;;1.38;0.60;;;6.20;96.80;;;;;;4999794;28;20049;-82
2020/12/29 12:41:32;;;;;;;2.33;0.60;;;6.20;96.40;;;;;;5003539;28;20655;-80
2020/12/29 12:43:58;;;;;;;1.95;0.40;;;6.30;96.90;;;;;;4998976;28;20038;-81
2020/12/29 12:46:24;;;;;;;1.58;0.40;;;6.10;97.10;;;;;;4999856;28;20713;-81
2020/12/29 12:48:49;;;;;;;0.60;0.50;;;6.10;97.20;;;;;;5016985;28;20048;-82
2020/12/29 12:51:15;;;;;;;0.93;0.57;;;6.00;97.90;;;;;;4996010;28;20034;-82
2020/12/29 12:53:42;;;;;;;0.68;0.40;;;5.90;98.40;;;;;;5002036;28;20540;-81
2020/12/29 12:56:12;;;;;;;2.47;0.57;;;5.90;99.50;;;;;;4994845;28;20133;-80